Time;durP1;ratioP1;P1;durP2;ratioP2;P2;SDS_P1;SDS_P2;PMS_P1;PMS_P2;Temp;Humidity;BMP_temperature;BMP_pressure;BME280_temperature;BME280_humidity;BME280_pressure;Samples;Min_cycle;Max_cycle;Signal;HPM_P1;HPM_P2
2022/05/03 00:02:06;;;;;;;10.93;8.40;;;;;;;4.65;nan;100967.41;4968480;28;20035;-80
2022/05/03 00:04:51;;;;;;;10.87;7.40;;;;;;;4.59;nan;100965.59;4985127;28;20086;-79
2022/05/03 00:07:38;;;;;;;12.18;7.43;;;;;;;4.45;nan;100965.47;4958953;28;20069;-78
2022/05/03 00:10:08;;;;;;;12.40;6.90;;;;;;;4.51;nan;100970.75;4987106;28;20082;-79
2022/05/03 00:12:41;;;;;;;13.07;8.23;;;;;;;4.40;nan;100961.06;4977002;28;20058;-81
2022/05/03 00:15:12;;;;;;;11.90;7.63;;;;;;;4.45;nan;100959.34;4990006;28;20066;-78
2022/05/03 00:17:40;;;;;;;12.17;8.17;;;;;;;4.42;nan;100961.97;4990434;28;20054;-79
2022/05/03 00:20:08;;;;;;;10.37;7.40;;;;;;;4.36;nan;100962.75;4986748;28;20055;-77
2022/05/03 00:22:35;;;;;;;11.57;8.03;;;;;;;4.33;nan;100957.50;5007117;28;20058;-79
2022/05/03 00:27:43;;;;;;;11.30;8.10;;;;;;;4.35;nan;100963.63;5007918;28;20073;-79
2022/05/03 00:30:11;;;;;;;17.83;8.87;;;;;;;4.44;nan;100953.25;4979522;28;20039;-80
2022/05/03 00:32:40;;;;;;;10.90;7.97;;;;;;;4.41;nan;100957.59;4967868;28;20098;-80
2022/05/03 00:35:09;;;;;;;10.33;7.13;;;;;;;4.34;nan;100956.66;4995933;28;20146;-79
2022/05/03 00:37:36;;;;;;;11.63;8.30;;;;;;;4.39;nan;100954.97;4980597;28;20094;-80
2022/05/03 00:40:04;;;;;;;12.73;8.27;;;;;;;4.36;nan;100954.91;4986367;28;20113;-82
2022/05/03 00:42:46;;;;;;;11.27;7.73;;;;;;;4.27;nan;100957.44;4972534;28;20201;-80
2022/05/03 00:45:28;;;;;;;10.47;7.17;;;;;;;4.27;nan;100961.81;4977672;28;20098;-81
2022/05/03 00:48:03;;;;;;;10.63;7.53;;;;;;;4.28;nan;100961.81;4986127;28;20509;-79
2022/05/03 00:50:45;;;;;;;11.20;7.93;;;;;;;4.16;nan;100957.34;4985216;28;20094;-79
2022/05/03 00:53:21;;;;;;;9.37;7.33;;;;;;;4.11;nan;100959.03;4974680;28;20105;-79
2022/05/03 00:56:06;;;;;;;10.83;8.17;;;;;;;4.02;nan;100958.94;4992200;28;20038;-81
2022/05/03 00:58:58;;;;;;;11.60;8.00;;;;;;;4.03;nan;100965.91;4990338;28;20048;-79
2022/05/03 01:01:51;;;;;;;9.93;6.97;;;;;;;3.99;nan;100964.13;4990316;28;20042;-78
2022/05/03 01:04:43;;;;;;;11.00;7.17;;;;;;;3.97;nan;100965.88;4981951;28;20118;-82
2022/05/03 01:07:19;;;;;;;12.07;7.70;;;;;;;4.01;nan;100969.38;4995674;28;20117;-80
2022/05/03 01:10:11;;;;;;;13.23;8.03;;;;;;;4.00;nan;100967.63;4993426;28;20141;-81
2022/05/03 01:13:02;;;;;;;9.60;7.40;;;;;;;4.07;nan;100969.44;4980282;28;20121;-80
2022/05/03 01:15:32;;;;;;;11.27;7.17;;;;;;;4.11;nan;100963.38;4978588;28;20472;-79
2022/05/03 01:18:21;;;;;;;10.43;7.23;;;;;;;4.11;nan;100966.00;4995540;28;20121;-81
2022/05/03 01:21:06;;;;;;;11.87;7.70;;;;;;;4.04;nan;100961.59;4995378;28;20117;-80
2022/05/03 01:23:49;;;;;;;10.53;7.30;;;;;;;3.96;nan;100953.66;4995544;28;20042;-80
2022/05/03 01:26:38;;;;;;;11.87;7.10;;;;;;;3.93;nan;100954.47;4992522;28;20197;-80
2022/05/03 01:29:27;;;;;;;10.10;7.33;;;;;;;3.90;nan;100956.19;4994987;28;20125;-80
2022/05/03 01:31:57;;;;;;;10.87;8.27;;;;;;;3.87;nan;100946.59;4993819;28;20154;-79
2022/05/03 01:34:26;;;;;;;8.67;6.73;;;;;;;3.83;nan;100956.97;4977026;28;20450;-81
2022/05/03 01:37:10;;;;;;;9.40;6.93;;;;;;;3.79;nan;100945.63;4987098;28;20124;-79
2022/05/03 01:40:01;;;;;;;10.98;7.22;;;;;;;3.76;nan;100948.19;4975316;28;20049;-80
2022/05/03 01:42:50;;;;;;;11.13;7.33;;;;;;;3.75;nan;100942.94;4967822;28;20042;-81
2022/05/03 01:45:27;;;;;;;14.53;8.33;;;;;;;3.74;nan;100936.84;4975777;28;20035;-80
2022/05/03 01:48:20;;;;;;;13.33;8.90;;;;;;;3.79;nan;100944.75;4980216;28;20042;-80
2022/05/03 01:51:01;;;;;;;12.10;7.50;;;;;;;3.79;nan;100943.00;4987267;28;20144;-79
2022/05/03 01:53:36;;;;;;;10.77;7.80;;;;;;;3.73;nan;100942.06;4972745;28;20042;-80
2022/05/03 01:56:26;;;;;;;11.70;8.40;;;;;;;3.70;nan;100944.59;4973960;28;20086;-79
2022/05/03 01:59:36;;;;;;;11.37;8.10;;;;;;;3.74;nan;100944.69;4999011;28;20040;-81
2022/05/03 02:02:17;;;;;;;11.37;7.17;;;;;;;3.66;nan;100938.47;4903321;28;20057;-80
2022/05/03 02:05:00;;;;;;;12.73;7.93;;;;;;;3.66;nan;100951.53;4981306;28;20102;-82
2022/05/03 02:07:52;;;;;;;11.67;7.63;;;;;;;3.66;nan;100941.09;4989796;28;20462;-79
2022/05/03 02:10:58;;;;;;;10.73;6.80;;;;;;;3.70;nan;100945.53;4976905;28;20055;-80
2022/05/03 02:16:31;;;;;;;13.70;8.50;;;;;;;3.92;nan;100938.78;4996064;28;20117;-79
2022/05/03 02:19:12;;;;;;;12.10;8.60;;;;;;;3.88;nan;100927.44;4962473;28;20121;-78
2022/05/03 02:22:11;;;;;;;12.43;6.93;;;;;;;3.82;nan;100929.09;4995657;28;20118;-80
2022/05/03 02:24:45;;;;;;;8.85;6.70;;;;;;;3.77;nan;100925.53;4973043;28;20125;-79
2022/05/03 02:27:13;;;;;;;;;;;;;;;3.80;nan;100925.59;4996080;28;20172;-78
2022/05/03 02:29:47;;;;;;;10.63;7.70;;;;;;;3.76;nan;100935.13;4943864;28;19922;-79
2022/05/03 02:32:22;;;;;;;;;;;;;;;3.78;nan;100936.00;4977167;28;20052;-79
2022/05/03 02:34:53;;;;;;;10.13;6.63;;;;;;;3.81;nan;100932.56;4955067;28;19932;-80
2022/05/03 02:37:24;;;;;;;11.97;8.00;;;;;;;3.79;nan;100927.31;4973757;28;20043;-79
2022/05/03 02:39:59;;;;;;;10.87;7.43;;;;;;;3.76;nan;100929.00;4978181;28;20054;-80
2022/05/03 02:42:27;;;;;;;9.60;7.50;;;;;;;3.73;nan;100924.63;4989319;28;20041;-79
2022/05/03 02:44:59;;;;;;;11.20;7.37;;;;;;;3.72;nan;100925.50;4972558;28;20042;-80
2022/05/03 02:47:41;;;;;;;10.60;7.43;;;;;;;3.79;nan;100927.31;4954723;28;20410;-79
2022/05/03 02:50:10;;;;;;;15.17;7.77;;;;;;;3.83;nan;100929.09;4986736;28;20045;-79
2022/05/03 02:52:59;;;;;;;12.40;8.00;;;;;;;3.94;nan;100927.47;4971180;28;20031;-80
2022/05/03 02:55:51;;;;;;;12.27;7.97;;;;;;;3.89;nan;100923.94;4983980;28;20038;-79
2022/05/03 02:58:40;;;;;;;14.43;7.93;;;;;;;3.89;nan;100936.16;4986967;28;20046;-80
2022/05/03 03:04:06;;;;;;;10.97;7.33;;;;;;;3.93;nan;100925.72;4970569;28;20511;-80
2022/05/03 03:06:37;;;;;;;9.53;7.03;;;;;;;4.04;nan;100923.25;4986348;28;20043;-79
2022/05/03 03:09:06;;;;;;;11.57;7.77;;;;;;;4.08;nan;100925.00;4970762;28;20050;-79
2022/05/03 03:11:55;;;;;;;11.03;7.80;;;;;;;4.08;nan;100919.78;4984503;28;20042;-79
2022/05/03 03:14:39;;;;;;;14.97;7.33;;;;;;;4.01;nan;100923.19;4990819;28;20479;-79
2022/05/03 03:17:08;;;;;;;9.82;7.65;;;;;;;4.04;nan;100931.09;4976596;28;20079;-79
2022/05/03 03:19:38;;;;;;;9.93;7.40;;;;;;;4.08;nan;100926.75;4951499;28;20050;-80
2022/05/03 03:22:07;;;;;;;10.83;8.00;;;;;;;4.09;nan;100931.13;4992178;28;20057;-80
2022/05/03 03:24:34;;;;;;;13.03;7.70;;;;;;;4.03;nan;100912.75;4969154;28;20046;-80
2022/05/03 03:27:02;;;;;;;11.50;7.77;;;;;;;4.08;nan;100927.63;4975417;28;20042;-80
2022/05/03 03:29:31;;;;;;;16.30;8.20;;;;;;;4.06;nan;100923.25;4957824;28;20505;-80
2022/05/03 03:32:01;;;;;;;9.90;7.30;;;;;;;4.02;nan;100931.91;4991458;28;20049;-79
2022/05/03 03:34:28;;;;;;;10.77;7.30;;;;;;;4.04;nan;100932.81;4970517;28;20042;-80
2022/05/03 03:37:01;;;;;;;9.93;7.53;;;;;;;4.03;nan;100928.44;4974750;28;20044;-80
2022/05/03 03:39:30;;;;;;;12.03;8.20;;;;;;;4.01;nan;100930.16;4973505;28;20444;-79
2022/05/03 03:42:04;;;;;;;10.37;7.30;;;;;;;3.97;nan;100920.56;4993413;28;20050;-79
2022/05/03 03:44:32;;;;;;;12.53;8.30;;;;;;;3.88;nan;100929.16;4957690;28;20379;-79
2022/05/03 03:47:00;;;;;;;13.97;7.87;;;;;;;3.87;nan;100917.84;4958641;28;20050;-80
2022/05/03 03:49:31;;;;;;;10.97;7.90;;;;;;;3.83;nan;100929.09;4982763;28;20046;-80
2022/05/03 03:51:59;;;;;;;10.93;7.93;;;;;;;3.72;nan;100922.00;4952177;28;20042;-80
2022/05/03 03:54:26;;;;;;;12.73;8.17;;;;;;;3.71;nan;100920.25;4969256;28;20364;-80
2022/05/03 03:56:54;;;;;;;11.47;8.40;;;;;;;3.79;nan;100931.69;4953200;28;20045;-79
2022/05/03 03:59:22;;;;;;;13.93;8.33;;;;;;;3.83;nan;100934.31;4979094;28;20082;-79
2022/05/03 04:01:49;;;;;;;10.97;8.10;;;;;;;3.69;nan;100935.91;4973640;28;20121;-80
2022/05/03 04:04:16;;;;;;;10.90;7.67;;;;;;;3.65;nan;100929.78;4981862;28;20102;-79
2022/05/03 04:06:44;;;;;;;11.20;7.73;;;;;;;3.60;nan;100930.56;4974136;28;20118;-80
2022/05/03 04:09:10;;;;;;;12.27;7.60;;;;;;;3.53;nan;100934.84;4996574;28;20098;-79
2022/05/03 04:11:45;;;;;;;12.07;7.70;;;;;;;3.63;nan;100936.72;4997817;28;20106;-81
2022/05/03 04:14:12;;;;;;;13.70;8.38;;;;;;;3.72;nan;100937.69;4976247;28;20094;-80
2022/05/03 04:16:39;;;;;;;12.73;7.50;;;;;;;3.59;nan;100944.50;4982390;28;20111;-81
2022/05/03 04:19:07;;;;;;;12.87;8.40;;;;;;;3.50;nan;100952.22;4991425;28;20145;-79
2022/05/03 04:21:34;;;;;;;12.07;7.90;;;;;;;3.52;nan;100946.13;4983744;28;20577;-80
2022/05/03 04:24:01;;;;;;;10.47;7.23;;;;;;;3.49;nan;100934.78;4968757;28;20090;-80
2022/05/03 04:26:28;;;;;;;11.97;7.60;;;;;;;3.46;nan;100947.81;4976509;28;20149;-79
2022/05/03 04:28:57;;;;;;;10.67;7.40;;;;;;;3.51;nan;100947.00;5001208;28;20102;-79
2022/05/03 04:31:28;;;;;;;11.17;7.27;;;;;;;3.48;nan;100954.81;4974727;28;20043;-79
2022/05/03 04:33:55;;;;;;;11.70;7.37;;;;;;;3.49;nan;100953.06;4941857;28;20046;-79
2022/05/03 04:36:25;;;;;;;11.80;7.80;;;;;;;3.50;nan;100950.47;4981218;28;20049;-79
2022/05/03 04:38:52;;;;;;;15.77;7.93;;;;;;;3.56;nan;100954.91;4987900;28;20046;-79
2022/05/03 04:41:20;;;;;;;12.07;7.47;;;;;;;3.58;nan;100961.91;4964056;28;20034;-80
2022/05/03 04:43:48;;;;;;;12.43;7.60;;;;;;;3.56;nan;100954.91;4959751;28;20045;-80
2022/05/03 04:46:15;;;;;;;15.30;7.40;;;;;;;3.51;nan;100965.28;4984859;28;20122;-80
2022/05/03 04:48:42;;;;;;;11.57;8.27;;;;;;;3.45;nan;100961.72;4992564;28;20098;-81
2022/05/03 04:51:20;;;;;;;12.23;8.13;;;;;;;3.56;nan;100968.84;4968345;28;20086;-80
2022/05/03 04:53:48;;;;;;;11.37;7.63;;;;;;;3.58;nan;100971.47;4968852;28;20121;-81
2022/05/03 04:56:20;;;;;;;12.10;8.20;;;;;;;3.65;nan;100968.09;4968815;28;20090;-81
2022/05/03 04:58:47;;;;;;;11.33;8.13;;;;;;;3.86;nan;100964.84;4983693;28;20114;-79
2022/05/03 05:01:15;;;;;;;10.10;6.80;;;;;;;4.04;nan;100972.91;4968450;28;20086;-79
2022/05/03 05:03:42;;;;;;;10.13;7.03;;;;;;;4.24;nan;100975.72;4983534;28;20133;-81
2022/05/03 05:06:10;;;;;;;11.30;7.23;;;;;;;4.21;nan;100970.47;4968041;28;20099;-79
2022/05/03 05:08:38;;;;;;;10.27;7.47;;;;;;;4.27;nan;100972.25;4982914;28;20094;-79
2022/05/03 05:11:05;;;;;;;10.43;7.07;;;;;;;4.22;nan;100973.09;4982518;28;20085;-80
2022/05/03 05:13:33;;;;;;;11.27;6.50;;;;;;;4.20;nan;100967.00;4941194;28;20110;-80
2022/05/03 05:16:00;;;;;;;10.67;7.13;;;;;;;4.22;nan;100970.50;4946777;28;20130;-80
2022/05/03 05:18:30;;;;;;;9.80;6.77;;;;;;;4.21;nan;100975.72;4961720;28;20621;-79
2022/05/03 05:20:57;;;;;;;10.67;7.37;;;;;;;4.21;nan;100973.97;4966433;28;20113;-79
2022/05/03 05:23:26;;;;;;;9.97;7.33;;;;;;;4.23;nan;100974.84;4980748;28;20125;-81
2022/05/03 05:25:54;;;;;;;9.33;6.70;;;;;;;4.32;nan;100979.31;4945906;28;1021920;-78
2022/05/03 05:28:22;;;;;;;10.03;6.93;;;;;;;4.45;nan;100980.28;4996628;28;20053;-78
2022/05/03 05:30:51;;;;;;;10.10;7.40;;;;;;;4.50;nan;100986.44;4965492;28;20048;-80
2022/05/03 05:33:18;;;;;;;9.63;6.63;;;;;;;4.57;nan;100985.66;4961329;28;20122;-80
2022/05/03 05:35:45;;;;;;;10.60;6.47;;;;;;;4.74;nan;100986.69;4979979;28;20144;-80
2022/05/03 05:38:16;;;;;;;11.93;7.30;;;;;;;4.88;nan;100994.66;4963365;28;20466;-79
2022/05/03 05:40:44;;;;;;;9.23;6.30;;;;;;;5.07;nan;100987.81;4950030;28;20555;-80
2022/05/03 05:43:11;;;;;;;9.87;6.77;;;;;;;5.19;nan;100985.25;4979266;28;20031;-79
2022/05/03 05:45:38;;;;;;;7.70;5.83;;;;;;;5.40;nan;100976.66;4969881;28;20048;-79
2022/05/03 05:48:06;;;;;;;7.30;5.43;;;;;;;5.79;nan;100983.81;4963519;28;20038;-80
2022/05/03 05:50:33;;;;;;;8.33;5.53;;;;;;;6.14;nan;100981.38;4956431;28;20040;-80
2022/05/03 05:55:45;;;;;;;72.63;12.83;;;;;;;8.03;nan;100977.66;4967360;28;20053;-81
2022/05/03 05:58:12;;;;;;;25.80;6.87;;;;;;;8.50;nan;100979.19;4962499;28;20046;-81
2022/05/03 06:00:39;;;;;;;13.30;5.93;;;;;;;8.59;nan;100983.50;4963510;28;20045;-79
2022/05/03 06:03:06;;;;;;;6.70;4.37;;;;;;;8.78;nan;100984.22;4963309;28;20133;-79
2022/05/03 06:05:33;;;;;;;4.83;3.30;;;;;;;8.82;nan;100978.03;4976210;28;20043;-80
2022/05/03 06:08:00;;;;;;;4.37;3.57;;;;;;;8.88;nan;100985.91;4944144;28;20488;-80
2022/05/03 06:10:28;;;;;;;6.47;4.27;;;;;;;8.79;nan;100985.97;4961056;28;20052;-80
2022/05/03 06:12:55;;;;;;;5.33;3.80;;;;;;;9.00;nan;100976.16;4977429;28;20042;-80
2022/05/03 06:15:22;;;;;;;6.73;4.07;;;;;;;9.67;nan;100976.31;4977434;28;20042;-80
2022/05/03 06:17:49;;;;;;;7.30;3.23;;;;;;;10.37;nan;100973.66;4995149;28;20495;-80
2022/05/03 06:20:16;;;;;;;25.13;5.95;;;;;;;10.94;nan;100981.59;4992792;28;20039;-81
2022/05/03 06:22:43;;;;;;;7.07;3.50;;;;;;;11.40;nan;100975.47;4994022;28;20503;-79
2022/05/03 06:25:10;;;;;;;3.72;2.80;;;;;;;12.02;nan;100978.69;4993650;28;20047;-80
2022/05/03 06:27:38;;;;;;;5.32;2.80;;;;;;;12.63;nan;100973.75;4979343;28;20543;-79
2022/05/03 06:30:06;;;;;;;4.75;2.88;;;;;;;13.21;nan;100973.22;4995902;23;20038;-78
2022/05/03 06:32:34;;;;;;;4.63;2.90;;;;;;;13.66;nan;100966.69;4992538;28;20042;-80
2022/05/03 06:35:01;;;;;;;4.95;2.95;;;;;;;14.37;nan;100975.16;4977129;28;20035;-78
2022/05/03 06:37:28;;;;;;;3.72;2.50;;;;;;;14.91;nan;100976.13;4978054;28;20030;-80
2022/05/03 06:39:55;;;;;;;4.57;2.78;;;;;;;15.19;nan;100971.59;4953196;28;20050;-79
2022/05/03 06:42:22;;;;;;;3.85;2.25;;;;;;;15.46;nan;100976.88;4994179;28;20034;-80
2022/05/03 06:44:49;;;;;;;4.10;2.80;;;;;;;15.48;nan;100975.06;4976542;28;20051;-79
2022/05/03 06:47:16;;;;;;;2.97;2.17;;;;;;;15.38;nan;100984.25;4977906;28;20040;-81
2022/05/03 06:49:43;;;;;;;3.60;2.67;;;;;;;14.89;nan;100983.31;4960002;28;20038;-79
2022/05/03 06:52:10;;;;;;;3.15;2.60;;;;;;;14.82;nan;100979.09;4977705;28;20036;-80
2022/05/03 06:54:37;;;;;;;4.47;2.47;;;;;;;15.03;nan;100978.38;4977040;28;20049;-79
2022/05/03 06:57:04;;;;;;;5.63;2.70;;;;;;;15.26;nan;100976.72;4978147;28;20038;-82
2022/05/03 06:59:31;;;;;;;3.60;2.70;;;;;;;15.48;nan;100983.03;4945656;28;20042;-80
2022/05/03 07:01:58;;;;;;;4.47;3.10;;;;;;;15.33;nan;100979.13;4980433;28;20043;-82
2022/05/03 07:04:25;;;;;;;3.10;2.20;;;;;;;15.43;nan;100974.34;4982569;28;20043;-79
2022/05/03 07:06:52;;;;;;;4.80;2.50;;;;;;;15.68;nan;100974.38;4977172;28;20410;-81
2022/05/03 07:09:19;;;;;;;3.45;3.00;;;;;;;15.51;nan;100985.59;4993457;28;20038;-79
2022/05/03 07:11:46;;;;;;;3.33;3.00;;;;;;;15.78;nan;100983.75;4957431;28;20599;-81
2022/05/03 07:14:15;;;;;;;4.05;2.70;;;;;;;15.88;nan;100978.94;4972140;28;20040;-81
2022/05/03 07:16:42;;;;;;;6.90;3.00;;;;;;;15.85;nan;100977.28;4972480;28;20050;-81
2022/05/03 07:24:40;;;;;;;6.38;3.30;;;;;;;16.63;nan;100979.56;4990079;28;20031;-81
2022/05/03 07:27:07;;;;;;;4.05;2.50;;;;;;;16.73;nan;100983.66;4991595;28;20402;-81
2022/05/03 07:29:35;;;;;;;6.85;2.60;;;;;;;16.84;nan;100975.19;4960232;28;20043;-80
2022/05/03 07:32:02;;;;;;;3.85;2.63;;;;;;;17.08;nan;100976.84;4954978;28;20053;-80
2022/05/03 07:34:29;;;;;;;4.05;2.63;;;;;;;17.09;nan;100975.03;4937795;28;20665;-81
2022/05/03 07:36:55;;;;;;;4.13;2.30;;;;;;;17.36;nan;100984.53;4938787;28;20153;-80
2022/05/03 07:39:22;;;;;;;3.33;2.47;;;;;;;17.06;nan;100984.03;4937178;28;20043;-81
2022/05/03 07:41:49;;;;;;;3.72;2.72;;;;;;;17.00;nan;100986.09;4951400;29;20036;-81
2022/05/03 07:44:16;;;;;;;4.13;2.95;;;;;;;17.21;nan;100984.31;4951180;28;20039;-81
2022/05/03 07:46:43;;;;;;;5.00;2.88;;;;;;;17.38;nan;100984.47;4951724;29;20515;-80
2022/05/03 07:49:11;;;;;;;3.47;2.72;;;;;;;17.04;nan;100993.03;4951078;28;20047;-81
2022/05/03 07:51:41;;;;;;;5.53;2.58;;;;;;;16.85;nan;101000.94;4971439;28;20034;-80
2022/05/03 07:54:09;;;;;;;3.83;2.95;;;;;;;17.14;nan;100986.38;4934566;29;20051;-81
2022/05/03 07:56:36;;;;;;;3.75;2.38;;;;;;;17.18;nan;100990.66;4944786;29;20051;-80
2022/05/03 07:59:03;;;;;;;2.83;2.17;;;;;;;17.26;nan;100996.53;4962988;28;20053;-80
2022/05/03 08:01:30;;;;;;;2.72;2.25;;;;;;;16.78;nan;100995.00;4938983;28;20488;-81
2022/05/03 08:03:57;;;;;;;4.47;2.83;;;;;;;16.97;nan;100992.41;4970818;28;20518;-81
2022/05/03 08:06:26;;;;;;;191.63;26.92;;;;;;;17.34;nan;100993.56;4955058;28;20058;-80
2022/05/03 08:08:53;;;;;;;4.22;2.55;;;;;;;17.39;nan;100992.41;4937786;28;20049;-80
2022/05/03 08:11:20;;;;;;;2.47;1.90;;;;;;;17.30;nan;100998.13;4941471;28;20501;-80
2022/05/03 08:13:48;;;;;;;2.67;1.77;;;;;;;17.50;nan;100988.41;4936673;28;20039;-81
2022/05/03 08:16:20;;;;;;;2.67;1.88;;;;;;;17.41;nan;100995.91;4940902;28;20454;-80
2022/05/03 08:18:48;;;;;;;3.17;1.98;;;;;;;17.17;nan;100988.94;4954506;28;20038;-81
2022/05/03 08:21:15;;;;;;;2.30;1.60;;;;;;;16.94;nan;100995.22;4955445;28;20034;-80
2022/05/03 08:23:42;;;;;;;2.15;1.55;;;;;;;17.06;nan;100996.50;4956966;28;20385;-80
2022/05/03 08:26:09;;;;;;;2.80;2.13;;;;;;;17.37;nan;101002.28;4957294;28;20086;-82
2022/05/03 08:28:36;;;;;;;2.38;1.70;;;;;;;17.52;nan;100999.91;4957901;28;20042;-81
2022/05/03 08:31:03;;;;;;;3.13;1.77;;;;;;;17.73;nan;101001.63;4970506;28;20045;-80
2022/05/03 08:33:30;;;;;;;2.75;1.95;;;;;;;17.90;nan;100988.38;4973262;28;20049;-80
2022/05/03 08:35:57;;;;;;;3.45;1.90;;;;;;;18.26;nan;100993.84;4974327;28;20053;-81
2022/05/03 08:43:58;;;;;;;1.92;1.73;;;;;;;18.65;nan;101000.03;4973063;28;20042;-80
2022/05/03 08:46:25;;;;;;;3.03;1.77;;;;;;;18.08;nan;100999.19;4958913;28;20500;-80
2022/05/03 08:48:56;;;;;;;3.35;1.77;;;;;;;18.06;nan;100993.03;4961909;28;20046;-81
2022/05/03 08:51:23;;;;;;;1.80;1.60;;;;;;;18.10;nan;100992.81;4973214;28;20033;-80
2022/05/03 08:53:50;;;;;;;4.20;1.63;;;;;;;18.18;nan;101000.50;4972306;28;20035;-81
2022/05/03 08:56:18;;;;;;;4.40;1.90;;;;;;;18.51;nan;100996.22;4958102;28;20039;-80
2022/05/03 08:58:46;;;;;;;2.15;1.70;;;;;;;18.69;nan;100997.16;4972745;28;20038;-81
2022/05/03 09:01:13;;;;;;;5.25;1.85;;;;;;;18.36;nan;100982.72;4966024;28;20042;-82
2022/05/03 09:03:40;;;;;;;3.00;1.58;;;;;;;18.78;nan;100983.34;4969556;28;20045;-81
2022/05/03 09:06:08;;;;;;;2.90;1.90;;;;;;;18.66;nan;100983.91;4938465;29;20050;-80
2022/05/03 09:08:35;;;;;;;3.35;1.48;;;;;;;18.96;nan;100989.59;4968646;28;20039;-81
2022/05/03 09:11:13;;;;;;;3.03;1.55;;;;;;;19.30;nan;100988.75;4962197;28;20035;-80
2022/05/03 09:13:40;;;;;;;1.92;1.42;;;;;;;19.15;nan;100989.50;4971812;28;20054;-81
2022/05/03 09:16:15;;;;;;;2.80;1.45;;;;;;;19.45;nan;100980.84;4957450;28;20042;-81
2022/05/03 09:18:44;;;;;;;3.05;1.83;;;;;;;19.58;nan;100984.66;4968533;28;20039;-81
2022/05/03 09:24:11;;;;;;;2.00;1.40;;;;;;;20.35;nan;100979.56;4972037;28;20496;-81
2022/05/03 09:26:39;;;;;;;3.30;1.58;;;;;;;20.62;nan;100981.66;4972627;28;20496;-80
2022/05/03 09:29:08;;;;;;;3.05;1.40;;;;;;;20.91;nan;100978.13;4962977;28;20396;-81
2022/05/03 09:31:43;;;;;;;1.58;1.38;;;;;;;21.11;nan;100968.06;4953468;28;20039;-81
2022/05/03 09:34:19;;;;;;;2.50;1.90;;;;;;;21.22;nan;100969.16;4964773;28;20497;-80
2022/05/03 09:36:51;;;;;;;2.03;1.58;;;;;;;20.82;nan;100975.13;4956798;28;20042;-82
2022/05/03 09:39:41;;;;;;;2.10;1.60;;;;;;;20.96;nan;100973.38;4971182;28;20038;-80
2022/05/03 09:42:12;;;;;;;3.13;1.83;;;;;;;20.20;nan;100973.22;4972673;28;20038;-81
2022/05/03 09:44:51;;;;;;;3.80;1.88;;;;;;;20.62;nan;100977.16;4966575;28;20057;-83
2022/05/03 09:47:20;;;;;;;2.50;1.70;;;;;;;20.35;nan;100976.00;4978050;28;20117;-82
2022/05/03 09:49:49;;;;;;;2.22;1.70;;;;;;;19.63;nan;100977.25;4976319;28;20039;-79
2022/05/03 09:52:29;;;;;;;1.70;1.58;;;;;;;19.10;nan;100964.81;4979522;28;20098;-81
2022/05/03 09:55:05;;;;;;;2.28;1.50;;;;;;;19.44;nan;100969.28;4962111;28;20776;-82
2022/05/03 09:57:37;;;;;;;18.10;3.97;;;;;;;19.26;nan;100975.59;4978337;28;20043;-80
2022/05/03 10:00:09;;;;;;;4.15;1.90;;;;;;;19.29;nan;100970.06;4975969;28;20034;-81
2022/05/03 10:02:40;;;;;;;2.65;1.77;;;;;;;19.47;nan;100968.25;4974010;28;20035;-81
2022/05/03 10:05:12;;;;;;;2.08;1.83;;;;;;;18.94;nan;100977.22;4974045;28;20043;-81
2022/05/03 10:07:43;;;;;;;2.35;2.00;;;;;;;18.27;nan;100970.63;4975215;28;20039;-80
2022/05/03 10:10:11;;;;;;;4.45;2.20;;;;;;;17.41;nan;100973.66;4973079;28;20039;-81
2022/05/03 10:12:38;;;;;;;2.10;1.65;;;;;;;17.53;nan;100970.44;4975366;28;20041;-81
2022/05/03 10:15:06;;;;;;;3.60;2.10;;;;;;;17.65;nan;100974.34;4974639;28;20126;-82
2022/05/03 10:20:40;;;;;;;2.08;1.77;;;;;;;18.21;nan;100962.91;4969960;28;20110;-83
2022/05/03 10:23:24;;;;;;;2.80;1.90;;;;;;;18.19;nan;100962.97;4973640;28;20122;-80
2022/05/03 10:25:54;;;;;;;2.97;1.73;;;;;;;18.11;nan;100956.25;4979644;28;20110;-80
2022/05/03 10:28:22;;;;;;;5.30;2.00;;;;;;;17.73;nan;100964.22;4982271;28;20098;-82
2022/05/03 10:31:20;;;;;;;2.83;1.92;;;;;;;17.63;nan;100965.53;4986355;28;20101;-81
2022/05/03 10:33:47;;;;;;;2.70;1.80;;;;;;;17.55;nan;100957.88;4951668;28;20046;-81
2022/05/03 10:36:30;;;;;;;2.47;1.50;;;;;;;17.55;nan;100955.19;4969223;28;20065;-81
2022/05/03 10:39:20;;;;;;;2.35;1.50;;;;;;;18.14;nan;100953.44;4981347;28;20061;-81
2022/05/03 10:41:56;;;;;;;2.30;1.85;;;;;;;18.77;nan;100952.16;4973545;28;20137;-80
2022/05/03 10:44:55;;;;;;;2.08;1.77;;;;;;;19.07;nan;100967.63;4944020;28;20118;-80
2022/05/03 10:47:46;;;;;;;2.85;1.65;;;;;;;18.97;nan;100961.84;4973602;28;20098;-82
2022/05/03 10:50:12;;;;;;;15.10;3.40;;;;;;;18.92;nan;100955.00;4955505;28;20559;-83
2022/05/03 10:52:43;;;;;;;3.00;1.60;;;;;;;18.72;nan;100956.00;4981423;28;20090;-80
2022/05/03 10:55:12;;;;;;;1.70;1.60;;;;;;;18.53;nan;100961.38;4962984;28;20114;-80
2022/05/03 10:58:14;;;;;;;1.70;1.60;;;;;;;18.52;nan;100971.19;4979236;28;20122;-80
2022/05/03 11:01:11;;;;;;;2.53;1.73;;;;;;;18.09;nan;100952.78;4979602;28;20113;-82
2022/05/03 11:03:48;;;;;;;2.60;2.00;;;;;;;17.80;nan;100960.34;4945713;28;20506;-80
2022/05/03 11:06:28;;;;;;;2.17;1.95;;;;;;;17.67;nan;100951.13;4997529;28;20098;-82
2022/05/03 11:14:16;;;;;;;3.25;2.70;;;;;;;17.88;nan;100951.97;4996972;28;20098;-80
2022/05/03 11:16:47;;;;;;;2.35;1.50;;;;;;;17.77;nan;100948.94;4978358;28;20056;-80
2022/05/03 11:19:19;;;;;;;1.63;1.30;;;;;;;17.84;nan;100951.25;4976432;28;20125;-80
2022/05/03 11:21:47;;;;;;;2.85;1.65;;;;;;;17.84;nan;100943.25;4981412;28;20268;-83
2022/05/03 11:24:20;;;;;;;1.70;1.60;;;;;;;17.77;nan;100947.13;4977522;28;20121;-80
2022/05/03 11:26:48;;;;;;;4.13;1.75;;;;;;;17.44;nan;100952.16;4976119;28;20362;-80
2022/05/03 11:29:15;;;;;;;1.50;1.38;;;;;;;17.38;nan;100961.28;4962573;28;20045;-81
2022/05/03 11:31:47;;;;;;;3.05;1.95;;;;;;;17.44;nan;100962.84;4958468;28;20047;-81
2022/05/03 11:34:15;;;;;;;2.97;1.60;;;;;;;17.43;nan;100961.97;4969829;28;20110;-80
2022/05/03 11:36:46;;;;;;;2.90;1.73;;;;;;;17.56;nan;100962.28;4970326;28;20128;-82
2022/05/03 11:39:14;;;;;;;2.20;1.90;;;;;;;17.82;nan;100961.13;4977841;28;20041;-80
2022/05/03 11:41:44;;;;;;;3.15;1.70;;;;;;;17.94;nan;100951.69;4961930;28;20399;-81
2022/05/03 11:44:11;;;;;;;2.25;1.42;;;;;;;17.54;nan;100958.81;4959527;28;20084;-81
2022/05/03 11:46:39;;;;;;;2.67;1.42;;;;;;;17.34;nan;100958.84;4980187;28;20049;-83
2022/05/03 11:49:10;;;;;;;1.60;1.50;;;;;;;17.53;nan;100964.22;4976941;28;20496;-80
2022/05/03 11:57:32;;;;;;;1.85;1.45;;;;;;;17.40;nan;100956.78;4995828;28;20093;-82
2022/05/03 12:00:00;;;;;;;1.85;1.35;;;;;;;17.39;nan;100957.69;4977519;28;20099;-80
2022/05/03 12:02:28;;;;;;;2.72;1.45;;;;;;;17.48;nan;100955.53;4962559;28;20105;-84
2022/05/03 12:04:59;;;;;;;1.60;1.50;;;;;;;17.39;nan;100952.34;4991661;28;20423;-83
2022/05/03 12:07:26;;;;;;;4.10;2.00;;;;;;;17.09;nan;100964.38;4993704;28;20129;-80
2022/05/03 12:09:53;;;;;;;1.95;1.20;;;;;;;17.05;nan;100952.94;4990478;28;20046;-81
2022/05/03 12:12:43;;;;;;;1.52;1.38;;;;;;;17.06;nan;100959.13;4975057;28;20042;-83
2022/05/03 12:15:15;;;;;;;2.47;1.30;;;;;;;17.15;nan;100948.97;4980045;28;20121;-80
2022/05/03 12:17:59;;;;;;;2.33;1.60;;;;;;;17.27;nan;100952.03;4996219;28;20555;-80
2022/05/03 12:20:40;;;;;;;;;;;;;;;17.43;nan;100958.44;4963049;28;20113;-80
2022/05/03 12:23:14;;;;;;;3.33;2.15;;;;;;;17.39;nan;100955.00;4995237;28;19981;-81
2022/05/03 12:25:41;;;;;;;;;;;;;;;17.63;nan;100952.19;4997040;28;20145;-81
2022/05/03 12:28:08;;;;;;;1.40;1.30;;;;;;;17.51;nan;100950.94;4944657;28;19921;-82
2022/05/03 12:30:36;;;;;;;1.80;1.50;;;;;;;17.64;nan;100956.59;4979077;28;20555;-82
2022/05/03 12:33:38;;;;;;;1.50;1.30;;;;;;;17.58;nan;100952.41;4999257;28;20120;-80
2022/05/03 12:37:09;;;;;;;2.72;1.75;;;;;;;17.53;nan;100953.53;4962748;28;20090;-79
2022/05/03 12:39:46;;;;;;;3.67;2.05;;;;;;;17.23;nan;100945.94;4987222;23;20410;-80
2022/05/03 12:42:15;;;;;;;2.20;1.35;;;;;;;17.07;nan;100950.22;4966030;28;20102;-78
2022/05/03 12:44:52;;;;;;;2.75;1.60;;;;;;;17.03;nan;100948.59;4972770;28;20041;-78
2022/05/03 12:47:19;;;;;;;4.22;1.98;;;;;;;17.10;nan;100942.06;4971891;28;20551;-79
2022/05/03 12:49:47;;;;;;;2.03;1.60;;;;;;;17.21;nan;100941.59;4972616;28;20042;-78